Brown Deer, Wisconsin
Current Conditions -  °F | °C
As of 12:35 AM on Friday 31 Oct 2014 (Local Time) from KMWC Reporting Station
Overcast Overcast  
Wind Chill: 37°   Ceiling: 3700
Heat Index: 43°   Visibility: 10mi
Dew Point: 32°   Wind: 12mph
Humidity: 66%   Direction: 320°NW
Pressure: 30.03"   Gusts: NA
Location:  43.18°N, 87.97°W
Report Text: KMWC 310535Z AUTO 32010KT 10SM OVC037 06/00 A3003 RMK AO2
Loading
Personal Weather Stations






























Interactive Weather Map
Tropical Storm Tracking
New forecast layout! Learn more

10-Day Weather Forecast

Advertisements
Track Severe Weather on mobile